Fort Morgan, Colorado
Current Conditions -  °F | °C
As of 5:15 AM on Friday 28 Nov 2014 (Local Time) from KFMM Reporting Station
Clear Clear  
Wind Chill: 28°   Ceiling: Unl
Heat Index: 36°   Visibility: 10mi
Dew Point: 23°   Wind: 12mph
Humidity: 60%   Direction: 280°W
Pressure: 29.96"   Gusts: NA
Location:  40.25°N, 103.8°W
Report Text: KFMM 281215Z AUTO 28010KT 10SM CLR 02/M05 A2996 RMK AO2 T00211050
Loading
Personal Weather Stations






























Interactive Weather Map New forecast layout! Learn more

10-Day Weather Forecast

Advertisements
Track Severe Weather on mobile